Arboles, CO (81121)

9:11 AM MDT on April 27, 2017 (GMT -0600)
Chimney Rock | | Change Station

Elev 6457 ft 37.20 °N, 107.34 °W | Updated 8 minutes ago

Overcast
Overcast
38.8 °F
Feels Like 39 °F
N
0.0
Wind Variable Wind from SE
Gusts 1.0 mph

Today
High -- | Low -- °F
--% Chance of Precip.
Yesterday
High -- | Low -- °F
Precip. -- in
Pressure 29.64 in
Visibility 8.0 miles
Clouds Mostly Cloudy 1200 ft
Overcast 1900 ft
Windchill 39 °F
Dew Point 37 °F
Humidity 93%
Rainfall 0.25 in
Snow Depth Not available.
6:19 AM 7:55 PM
New Moon, 2% visible
METAR KDRO 271453Z AUTO 02004KT 8SM -RA BKN012 OVC019 05/02 A2973 RMK AO2 RAE14B46 SLP035 P0000 60002 T00500022 53000
Pressure 29.64 in
Visibility 8.0 miles
Clouds Mostly Cloudy 1200 ft
Overcast 1900 ft
Windchill 39 °F
Dew Point 37 °F
Humidity 93%
Rainfall 0.25 in
Snow Depth Not available.
6:19 AM 7:55 PM
New Moon, 2% visible
METAR KDRO 271453Z AUTO 02004KT 8SM -RA BKN012 OVC019 05/02 A2973 RMK AO2 RAE14B46 SLP035 P0000 60002 T00500022 53000

Get Severe Weather Alerts

Thanks for signing up!

Be on the lookout for a verification email in your inbox.

You'll start receiving the daily forecast at 8 AM.

×

10-Day Weather Forecast

Almanac

Astronomy

Apr. 27, 2017 Rise Set
Actual Time
Civil Twilight
Nautical Twilight
Astronomical Twilight
Moon
Length of Visible Light
Length of Day
Tomorrow will be .
, % of the Moon is Illuminated

Today's Extremes

State Highs State Lows

Community

WunderPhotos

WunderBlog® & News

Nearby

Air Quality

  Air Quality AQ Index Pollutant
Not available.

Snow Depth

Station Depth Elevation

Earthquake Activity

City Distance Mag. Time & Date
Minimum magnitude displayed is 2.5.

Coastal Water Temperatures

Place Temperature

Stations

Nearby Weather Stations

Station Location Temp. Windchill Dew Point Humidity Wind Precip. Elev Updated Type
                   

Watches & Warnings

There are currently no watches in effect.